Time;durP1;ratioP1;P1;durP2;ratioP2;P2;SDS_P1;SDS_P2;PMS_P1;PMS_P2;Temp;Humidity;BMP_temperature;BMP_pressure;BME280_temperature;BME280_humidity;BME280_pressure;Samples;Min_cycle;Max_cycle;Signal;HPM_P1;HPM_P2
2023/04/13 00:00:12;;;;;;;4.63;2.80;;;4.00;75.00;;;;;;5022218;28;20169;-75
2023/04/13 00:02:38;;;;;;;4.93;3.00;;;3.90;75.10;;;;;;5020721;28;20075;-75
2023/04/13 00:05:09;;;;;;;7.27;3.60;;;4.00;75.10;;;;;;5023176;28;20082;-75
2023/04/13 00:07:38;;;;;;;9.35;3.75;;;4.00;75.10;;;;;;5006842;28;20044;-75
2023/04/13 00:10:08;;;;;;;7.73;3.47;;;4.00;74.90;;;;;;5022651;28;20085;-75
2023/04/13 00:12:39;;;;;;;7.50;3.70;;;4.00;75.00;;;;;;5039578;28;20084;-75
2023/04/13 00:15:06;;;;;;;6.22;3.53;;;4.00;75.00;;;;;;5022952;28;20049;-75
2023/04/13 00:17:36;;;;;;;8.67;3.37;;;4.10;75.10;;;;;;5032543;28;20063;-75
2023/04/13 00:20:07;;;;;;;7.97;3.10;;;4.10;75.10;;;;;;5045794;28;20045;-75
2023/04/13 00:22:33;;;;;;;5.95;3.58;;;4.10;75.10;;;;;;5022205;28;20045;-75
2023/04/13 00:25:00;;;;;;;11.77;3.40;;;4.20;75.10;;;;;;5053674;28;20121;-75
2023/04/13 00:27:26;;;;;;;4.27;3.23;;;4.30;74.90;;;;;;5026203;28;20072;-75
2023/04/13 00:29:55;;;;;;;4.63;3.20;;;4.40;74.70;;;;;;5039423;28;20496;-75
2023/04/13 00:32:21;;;;;;;6.97;3.23;;;4.50;73.90;;;;;;5021326;28;20049;-75
2023/04/13 00:34:47;;;;;;;4.73;2.87;;;4.70;74.00;;;;;;5039529;28;20117;-75
2023/04/13 00:37:13;;;;;;;5.97;3.20;;;4.90;73.60;;;;;;5007280;28;20055;-75
2023/04/13 00:39:42;;;;;;;9.70;3.13;;;5.00;73.60;;;;;;5022702;28;20283;-75
2023/04/13 00:42:08;;;;;;;6.73;3.30;;;5.10;72.90;;;;;;5020750;28;20591;-75
2023/04/13 00:44:35;;;;;;;5.53;3.40;;;5.30;72.60;;;;;;5040500;28;20053;-73
2023/04/13 00:47:04;;;;;;;7.87;3.30;;;5.30;72.20;;;;;;5024254;28;20139;-74
2023/04/13 00:49:34;;;;;;;5.87;3.40;;;5.40;72.20;;;;;;5037665;28;20048;-74
2023/04/13 00:52:03;;;;;;;6.90;3.57;;;5.40;72.30;;;;;;5039539;28;20556;-74
2023/04/13 00:54:31;;;;;;;6.97;3.90;;;5.40;72.40;;;;;;5021651;28;20373;-75
2023/04/13 00:56:58;;;;;;;7.33;3.40;;;5.40;72.50;;;;;;5006182;28;20052;-74
2023/04/13 00:59:26;;;;;;;6.83;3.70;;;5.40;73.20;;;;;;5038612;28;20041;-73
2023/04/13 01:01:56;;;;;;;6.53;3.80;;;5.30;73.90;;;;;;5040614;28;20052;-75
2023/04/13 01:04:26;;;;;;;8.63;4.37;;;5.30;74.40;;;;;;5019575;28;20057;-75
2023/04/13 01:07:04;;;;;;;7.33;3.77;;;5.30;74.80;;;;;;5005581;28;20111;-74
2023/04/13 01:09:36;;;;;;;8.33;4.10;;;5.20;75.20;;;;;;5038098;28;20056;-75
2023/04/13 01:12:20;;;;;;;11.27;5.10;;;5.10;75.50;;;;;;5020437;28;20052;-74
2023/04/13 01:15:19;;;;;;;8.27;4.23;;;5.10;75.80;;;;;;5039290;28;20620;-75
2023/04/13 01:17:53;;;;;;;13.83;6.03;;;5.10;76.40;;;;;;5000864;28;20502;-74
2023/04/13 01:20:19;;;;;;;9.13;5.53;;;5.00;76.70;;;;;;5020951;28;20052;-75
2023/04/13 01:22:57;;;;;;;10.77;6.83;;;5.00;76.80;;;;;;5020007;28;20282;-74
2023/04/13 01:25:49;;;;;;;13.50;7.30;;;5.00;76.80;;;;;;5008118;28;20148;-75
2023/04/13 01:28:16;;;;;;;11.67;7.93;;;5.00;76.80;;;;;;5021918;28;20072;-75
2023/04/13 01:30:43;;;;;;;6.13;3.87;;;4.90;77.40;;;;;;5039004;28;20051;-74
2023/04/13 01:33:11;;;;;;;7.97;4.17;;;4.90;76.80;;;;;;5039296;28;20124;-75
2023/04/13 01:35:37;;;;;;;8.60;4.10;;;4.70;77.20;;;;;;5038764;28;20435;-75
2023/04/13 01:38:05;;;;;;;7.07;4.07;;;4.70;77.20;;;;;;5022687;28;20040;-74
2023/04/13 01:40:39;;;;;;;8.83;4.90;;;4.70;77.50;;;;;;5020208;28;20056;-74
2023/04/13 01:43:06;;;;;;;8.13;4.73;;;4.70;77.30;;;;;;5020581;28;20045;-75
2023/04/13 01:45:46;;;;;;;8.13;4.87;;;4.70;77.60;;;;;;5004792;28;20480;-75
2023/04/13 01:48:27;;;;;;;11.35;4.80;;;4.70;77.70;;;;;;5022067;28;20053;-74
2023/04/13 01:51:10;;;;;;;7.07;4.73;;;4.70;77.80;;;;;;5038396;28;20048;-74
2023/04/13 01:53:52;;;;;;;9.47;5.73;;;4.70;77.90;;;;;;5037368;28;20045;-75
2023/04/13 01:56:18;;;;;;;9.43;6.17;;;4.70;77.90;;;;;;4994886;28;20041;-74
2023/04/13 01:58:50;;;;;;;9.10;5.57;;;4.70;78.00;;;;;;5033079;28;20056;-74
2023/04/13 02:01:16;;;;;;;11.37;5.83;;;4.70;78.10;;;;;;5022512;28;20482;-75
2023/04/13 02:03:44;;;;;;;8.37;5.63;;;4.70;78.10;;;;;;5041432;28;20975;-75
2023/04/13 02:06:10;;;;;;;7.40;5.40;;;4.70;78.10;;;;;;5015364;28;20586;-74
2023/04/13 02:08:36;;;;;;;8.20;5.10;;;4.70;78.00;;;;;;5014724;28;20056;-74
2023/04/13 02:11:02;;;;;;;9.30;5.50;;;4.70;78.30;;;;;;5037025;28;20049;-74
2023/04/13 02:13:31;;;;;;;9.60;5.10;;;4.70;78.30;;;;;;5020496;28;20530;-74
2023/04/13 02:15:57;;;;;;;9.53;4.80;;;4.70;78.40;;;;;;5041822;28;20056;-74
2023/04/13 02:18:23;;;;;;;10.00;5.00;;;4.70;78.30;;;;;;5007891;28;20483;-74
2023/04/13 02:20:59;;;;;;;10.07;5.47;;;4.70;78.40;;;;;;5023750;28;20080;-74
2023/04/13 02:23:25;;;;;;;10.20;5.80;;;4.70;78.40;;;;;;5008518;28;20044;-74
2023/04/13 02:25:51;;;;;;;11.37;5.23;;;4.70;78.60;;;;;;5048897;28;20399;-74
2023/04/13 02:28:17;;;;;;;9.33;5.70;;;4.70;78.50;;;;;;5005190;28;20442;-74
2023/04/13 02:30:43;;;;;;;11.00;5.73;;;4.80;78.70;;;;;;5040488;28;20044;-74
2023/04/13 02:33:09;;;;;;;8.93;5.00;;;4.70;78.60;;;;;;5038015;28;20072;-75
2023/04/13 02:35:37;;;;;;;9.10;5.20;;;4.70;78.90;;;;;;5039618;28;20045;-74
2023/04/13 02:38:05;;;;;;;8.70;5.00;;;4.70;78.70;;;;;;5025836;28;20132;-74
2023/04/13 02:40:31;;;;;;;12.33;5.83;;;4.80;78.90;;;;;;5039960;28;20121;-74
2023/04/13 02:42:58;;;;;;;8.20;5.03;;;4.70;78.80;;;;;;5042736;28;20060;-74
2023/04/13 02:45:25;;;;;;;10.03;5.10;;;4.80;78.90;;;;;;5023372;28;20060;-74
2023/04/13 02:47:51;;;;;;;9.43;5.00;;;4.80;78.90;;;;;;5024308;28;20524;-74
2023/04/13 02:50:17;;;;;;;8.37;4.50;;;4.80;78.90;;;;;;5042270;28;20131;-74
2023/04/13 02:52:43;;;;;;;8.23;4.20;;;4.80;78.90;;;;;;5023327;28;20139;-75
2023/04/13 02:55:09;;;;;;;7.20;4.13;;;4.80;78.70;;;;;;5024402;28;20045;-74
2023/04/13 02:57:35;;;;;;;6.10;3.70;;;4.90;78.70;;;;;;5025358;28;20148;-73
2023/04/13 03:00:06;;;;;;;4.83;3.27;;;4.90;78.50;;;;;;5041560;28;20394;-74
2023/04/13 03:02:34;;;;;;;9.65;3.65;;;4.90;78.30;;;;;;5026653;28;20052;-75
2023/04/13 03:05:01;;;;;;;4.83;3.57;;;4.90;78.60;;;;;;5038450;28;20257;-74
2023/04/13 03:07:27;;;;;;;8.53;3.80;;;4.90;78.70;;;;;;5007188;28;20075;-74
2023/04/13 03:09:52;;;;;;;5.47;3.50;;;4.90;78.50;;;;;;5041455;28;20558;-74
2023/04/13 03:12:19;;;;;;;8.97;3.17;;;4.90;78.70;;;;;;5039721;28;20045;-74
2023/04/13 03:14:45;;;;;;;7.77;3.37;;;4.90;78.70;;;;;;5042648;28;20694;-74
2023/04/13 03:17:11;;;;;;;8.50;4.13;;;4.90;78.70;;;;;;5012735;28;20233;-74
2023/04/13 03:19:36;;;;;;;8.33;3.83;;;4.90;78.90;;;;;;5034013;28;20553;-74
2023/04/13 03:22:02;;;;;;;9.23;3.03;;;4.90;78.90;;;;;;5023617;28;20072;-74
2023/04/13 03:24:28;;;;;;;6.90;3.07;;;4.90;79.00;;;;;;5051549;28;20052;-74
2023/04/13 03:26:55;;;;;;;6.93;3.83;;;4.90;79.10;;;;;;5033566;28;20132;-74
2023/04/13 03:29:22;;;;;;;7.50;3.57;;;4.90;79.10;;;;;;5023726;28;20049;-74
2023/04/13 03:31:48;;;;;;;7.83;3.50;;;4.90;79.20;;;;;;5023560;28;20487;-74
2023/04/13 03:34:14;;;;;;;6.47;3.60;;;4.90;79.10;;;;;;5039472;28;20053;-75
2023/04/13 03:36:40;;;;;;;6.60;3.57;;;4.90;79.20;;;;;;5025952;28;20453;-74
2023/04/13 03:39:05;;;;;;;4.17;3.53;;;4.90;79.20;;;;;;5039032;28;20561;-75
2023/04/13 03:41:31;;;;;;;6.93;3.60;;;5.00;79.20;;;;;;5041009;28;20345;-74
2023/04/13 03:43:57;;;;;;;7.30;3.77;;;5.00;79.30;;;;;;5040634;28;20198;-74
2023/04/13 03:46:23;;;;;;;5.30;3.57;;;5.00;79.20;;;;;;5028311;28;20543;-74
2023/04/13 03:48:48;;;;;;;6.57;3.67;;;5.00;79.20;;;;;;5036279;28;20433;-74
2023/04/13 03:51:15;;;;;;;5.67;3.87;;;5.00;79.30;;;;;;5040304;28;20471;-74
2023/04/13 03:53:40;;;;;;;5.47;3.30;;;5.00;79.20;;;;;;5021835;28;20565;-74
2023/04/13 03:56:07;;;;;;;5.50;3.90;;;5.00;79.20;;;;;;5034656;28;20052;-74
2023/04/13 03:58:33;;;;;;;6.03;3.80;;;5.00;79.30;;;;;;5013781;28;20447;-75
2023/04/13 04:00:59;;;;;;;7.30;3.57;;;5.00;79.30;;;;;;5041184;28;20049;-74
2023/04/13 04:03:25;;;;;;;6.30;3.80;;;5.00;79.20;;;;;;5039341;28;20057;-74
2023/04/13 04:05:51;;;;;;;5.47;3.53;;;5.00;79.30;;;;;;5039975;28;20144;-75
2023/04/13 04:08:17;;;;;;;6.43;3.63;;;5.00;79.20;;;;;;5005106;28;20099;-75
2023/04/13 04:10:42;;;;;;;5.37;3.27;;;5.00;79.00;;;;;;5040599;28;20606;-75
2023/04/13 04:13:08;;;;;;;6.33;3.57;;;5.00;79.10;;;;;;5039439;28;20090;-75
2023/04/13 04:15:34;;;;;;;7.33;4.00;;;5.00;79.10;;;;;;5041207;28;20049;-75
2023/04/13 04:18:00;;;;;;;5.93;3.87;;;5.00;79.20;;;;;;4991978;28;20051;-75
2023/04/13 04:20:26;;;;;;;4.60;3.47;;;5.00;79.00;;;;;;5040025;28;20295;-75
2023/04/13 04:22:52;;;;;;;25.87;12.07;;;5.00;79.00;;;;;;5022380;28;20117;-74
2023/04/13 04:25:21;;;;;;;30.33;14.33;;;5.00;79.00;;;;;;5044462;28;20546;-75
2023/04/13 04:27:56;;;;;;;16.57;8.70;;;4.90;79.00;;;;;;5023312;28;20100;-74
2023/04/13 04:30:23;;;;;;;14.03;8.83;;;4.90;79.00;;;;;;5023320;28;20452;-75
2023/04/13 04:32:52;;;;;;;17.70;11.43;;;4.90;78.90;;;;;;5021401;28;20136;-75
2023/04/13 04:35:19;;;;;;;32.70;18.67;;;4.80;78.90;;;;;;5039639;28;20205;-74
2023/04/13 04:37:48;;;;;;;6.70;4.70;;;4.70;78.90;;;;;;4997961;28;20488;-74
2023/04/13 04:40:14;;;;;;;10.10;6.00;;;4.70;79.00;;;;;;5026403;28;20550;-75
2023/04/13 04:42:41;;;;;;;7.37;4.90;;;4.70;79.00;;;;;;5020211;28;20076;-75
2023/04/13 04:45:09;;;;;;;7.77;3.83;;;4.60;79.00;;;;;;5040172;28;20123;-75
2023/04/13 04:47:40;;;;;;;5.97;4.70;;;4.50;79.10;;;;;;5005108;28;20060;-75
2023/04/13 04:50:11;;;;;;;8.55;5.00;;;4.50;79.10;;;;;;5040993;28;20063;-75
2023/04/13 04:52:37;;;;;;;7.18;5.55;;;4.50;79.10;;;;;;5037727;28;20052;-75
2023/04/13 04:55:05;;;;;;;8.43;5.37;;;4.50;79.20;;;;;;5041049;28;20053;-75
2023/04/13 04:57:32;;;;;;;7.13;5.43;;;4.50;79.30;;;;;;5023104;28;20084;-75
2023/04/13 04:59:58;;;;;;;9.07;5.87;;;4.50;79.30;;;;;;5039503;28;20049;-75
2023/04/13 05:02:24;;;;;;;8.50;4.90;;;4.50;79.30;;;;;;5022454;28;20310;-75
2023/04/13 05:04:52;;;;;;;7.73;5.40;;;4.50;79.30;;;;;;5040565;28;20265;-75
2023/04/13 05:07:18;;;;;;;8.63;5.23;;;4.60;79.40;;;;;;5004798;28;20426;-75
2023/04/13 05:09:44;;;;;;;9.90;6.30;;;4.70;79.40;;;;;;5039149;28;20045;-75
2023/04/13 05:12:10;;;;;;;8.17;5.67;;;4.70;79.50;;;;;;5038240;28;20488;-74
2023/04/13 05:14:36;;;;;;;8.20;6.00;;;4.70;79.40;;;;;;5022339;28;20049;-74
2023/04/13 05:17:02;;;;;;;9.30;6.03;;;4.70;79.30;;;;;;5026178;28;20098;-74
2023/04/13 05:19:28;;;;;;;10.10;5.60;;;4.70;79.30;;;;;;5025124;28;20110;-75
2023/04/13 05:21:53;;;;;;;10.23;6.50;;;4.70;79.20;;;;;;5040590;28;20040;-75
2023/04/13 05:24:19;;;;;;;8.97;7.00;;;4.70;79.20;;;;;;5047162;28;20102;-75
2023/04/13 05:26:45;;;;;;;9.60;6.87;;;4.70;79.20;;;;;;5026072;28;20049;-74
2023/04/13 05:29:11;;;;;;;13.03;7.50;;;4.70;79.40;;;;;;5038044;28;20072;-75
2023/04/13 05:31:37;;;;;;;12.63;7.20;;;4.70;79.40;;;;;;5020253;28;20546;-74
2023/04/13 05:34:03;;;;;;;9.97;7.57;;;4.70;79.50;;;;;;5020111;28;20507;-74
2023/04/13 05:36:31;;;;;;;11.43;7.77;;;4.70;79.60;;;;;;5009895;28;20057;-75
2023/04/13 05:39:03;;;;;;;14.33;8.03;;;4.80;79.60;;;;;;5040962;28;20507;-74
2023/04/13 05:41:28;;;;;;;10.13;7.13;;;4.90;79.60;;;;;;5010539;28;20057;-75
2023/04/13 05:43:54;;;;;;;8.93;6.50;;;4.90;79.50;;;;;;5030935;28;20045;-75
2023/04/13 05:46:20;;;;;;;15.97;7.30;;;5.00;79.40;;;;;;5030290;28;20483;-75
2023/04/13 05:48:46;;;;;;;10.40;6.70;;;5.00;79.40;;;;;;5038878;28;20415;-75
2023/04/13 05:51:11;;;;;;;10.43;6.97;;;5.20;79.60;;;;;;5036008;28;20700;-74
2023/04/13 05:53:38;;;;;;;11.17;6.73;;;5.30;79.30;;;;;;5028412;28;20111;-75
2023/04/13 05:56:04;;;;;;;10.37;6.90;;;5.40;79.20;;;;;;5034134;28;20045;-75
2023/04/13 05:58:30;;;;;;;11.33;6.40;;;5.50;79.00;;;;;;5032734;28;20134;-75
2023/04/13 06:00:56;;;;;;;9.33;5.43;;;5.70;79.00;;;;;;5047664;28;20049;-74
2023/04/13 06:03:22;;;;;;;13.00;5.60;;;5.90;78.60;;;;;;5041317;28;20517;-75
2023/04/13 06:05:48;;;;;;;10.37;5.37;;;6.00;78.50;;;;;;5040615;28;20052;-75
2023/04/13 06:08:13;;;;;;;9.60;4.63;;;6.20;78.10;;;;;;5016910;28;20140;-75
2023/04/13 06:10:40;;;;;;;13.13;5.13;;;6.20;77.80;;;;;;5035027;28;20115;-74
2023/04/13 06:13:07;;;;;;;10.13;4.80;;;6.20;77.90;;;;;;5047715;28;20040;-74
2023/04/13 06:15:33;;;;;;;8.20;4.07;;;6.10;77.50;;;;;;5042733;28;20059;-74
2023/04/13 06:17:58;;;;;;;10.17;4.50;;;6.00;77.40;;;;;;5038032;28;20052;-74
2023/04/13 06:20:24;;;;;;;9.03;3.83;;;5.80;78.00;;;;;;5045659;28;20143;-75
2023/04/13 06:22:50;;;;;;;12.53;4.17;;;5.70;77.90;;;;;;5023630;28;20045;-74
2023/04/13 06:25:15;;;;;;;11.00;4.27;;;5.60;78.00;;;;;;5058252;28;20051;-74
2023/04/13 06:27:42;;;;;;;10.80;5.03;;;5.50;78.20;;;;;;5027732;28;20049;-74
2023/04/13 06:30:09;;;;;;;13.20;4.57;;;5.50;78.50;;;;;;5043310;28;20341;-75
2023/04/13 06:32:35;;;;;;;11.23;4.57;;;5.50;78.60;;;;;;5041038;28;20763;-74
2023/04/13 06:35:02;;;;;;;9.77;4.10;;;5.50;78.80;;;;;;5042763;28;20061;-75
2023/04/13 06:37:29;;;;;;;8.90;4.10;;;5.50;78.80;;;;;;5026891;28;20479;-75
2023/04/13 06:39:56;;;;;;;7.97;4.40;;;5.60;78.20;;;;;;5042583;28;20444;-74
2023/04/13 06:42:22;;;;;;;8.63;3.73;;;5.60;78.70;;;;;;5023714;28;20128;-74
2023/04/13 06:44:48;;;;;;;7.53;3.40;;;5.60;78.40;;;;;;5042769;28;20606;-75
2023/04/13 06:47:14;;;;;;;10.87;4.00;;;5.70;78.00;;;;;;5024028;28;20046;-74
2023/04/13 06:49:41;;;;;;;9.37;3.87;;;5.70;78.20;;;;;;5042905;28;20080;-75
2023/04/13 06:52:08;;;;;;;7.67;3.70;;;5.70;78.40;;;;;;5022234;28;20227;-74
2023/04/13 06:54:34;;;;;;;11.53;4.70;;;5.80;77.90;;;;;;5042771;28;20503;-74
2023/04/13 06:57:00;;;;;;;8.93;4.27;;;5.80;78.10;;;;;;5025217;28;20305;-74
2023/04/13 06:59:26;;;;;;;9.70;4.87;;;5.80;78.00;;;;;;5009450;28;20464;-74
2023/04/13 07:01:52;;;;;;;9.40;4.27;;;5.90;77.40;;;;;;5040071;28;20053;-75
2023/04/13 07:04:18;;;;;;;8.27;4.90;;;5.90;77.50;;;;;;5040150;28;20052;-74
2023/04/13 07:06:45;;;;;;;12.83;5.77;;;6.10;77.60;;;;;;5027831;28;20069;-74
2023/04/13 07:09:11;;;;;;;15.17;5.47;;;6.30;77.60;;;;;;5040527;28;20087;-74
2023/04/13 07:11:36;;;;;;;14.57;6.80;;;6.50;77.60;;;;;;5040831;28;20464;-74
2023/04/13 07:14:02;;;;;;;14.07;5.80;;;6.60;77.20;;;;;;5041278;28;20048;-75
2023/04/13 07:16:28;;;;;;;12.77;5.73;;;6.80;77.00;;;;;;4994205;28;20057;-74
2023/04/13 07:18:54;;;;;;;11.63;5.37;;;7.00;77.10;;;;;;5020789;28;20057;-74
2023/04/13 07:21:20;;;;;;;13.77;5.93;;;7.10;76.30;;;;;;5029744;28;20043;-75
2023/04/13 07:23:46;;;;;;;13.37;5.90;;;7.00;75.50;;;;;;5032157;28;20139;-74
2023/04/13 07:26:15;;;;;;;12.20;4.57;;;7.00;76.50;;;;;;5030259;28;20128;-74
2023/04/13 07:28:41;;;;;;;10.57;4.60;;;7.00;75.70;;;;;;5034721;28;20136;-74
2023/04/13 07:31:06;;;;;;;10.87;4.27;;;7.00;75.60;;;;;;5022224;28;20057;-74
2023/04/13 07:33:32;;;;;;;12.13;3.97;;;7.00;76.00;;;;;;5039440;28;20071;-74
2023/04/13 07:35:58;;;;;;;10.50;4.17;;;7.00;75.40;;;;;;5022076;28;20049;-75
2023/04/13 07:38:24;;;;;;;10.63;4.03;;;7.20;75.80;;;;;;5024238;28;20055;-73
2023/04/13 07:40:50;;;;;;;12.47;4.00;;;7.40;75.60;;;;;;5022757;28;20076;-74
2023/04/13 07:43:16;;;;;;;9.93;3.53;;;7.50;74.50;;;;;;5038367;28;20052;-74
2023/04/13 07:45:42;;;;;;;13.13;3.60;;;7.50;74.50;;;;;;5021990;28;20056;-74
2023/04/13 07:48:08;;;;;;;7.20;2.70;;;7.70;74.90;;;;;;5006423;28;20421;-74
2023/04/13 07:50:40;;;;;;;12.43;3.47;;;7.90;74.20;;;;;;5039346;28;20076;-74
2023/04/13 07:53:06;;;;;;;10.90;2.97;;;8.00;74.00;;;;;;5020789;28;20124;-74
2023/04/13 07:55:32;;;;;;;12.70;3.33;;;8.00;73.80;;;;;;5032341;28;20099;-74
2023/04/13 07:57:58;;;;;;;8.57;2.93;;;8.00;74.00;;;;;;5021936;28;20491;-74
2023/04/13 08:00:24;;;;;;;10.93;3.10;;;8.00;73.60;;;;;;5040775;28;20052;-75
2023/04/13 08:02:52;;;;;;;10.07;3.50;;;8.00;73.30;;;;;;5038560;28;20048;-74
2023/04/13 08:05:18;;;;;;;13.40;3.00;;;8.20;73.60;;;;;;5039897;28;20507;-74
2023/04/13 08:07:45;;;;;;;10.10;2.90;;;8.30;73.60;;;;;;5023290;28;20055;-73
2023/04/13 08:10:11;;;;;;;12.27;2.90;;;8.20;72.00;;;;;;5021948;28;20561;-75
2023/04/13 08:12:37;;;;;;;10.30;3.03;;;8.20;72.50;;;;;;5024799;28;20052;-74
2023/04/13 08:15:03;;;;;;;11.80;2.93;;;8.20;72.50;;;;;;5039128;28;20075;-75
2023/04/13 08:17:30;;;;;;;13.03;2.63;;;8.40;72.50;;;;;;5006222;28;20100;-74
2023/04/13 08:19:56;;;;;;;7.73;2.70;;;8.70;71.80;;;;;;5040673;28;20045;-74
2023/04/13 08:22:22;;;;;;;4.70;2.60;;;9.10;71.70;;;;;;5020797;28;20322;-75
2023/04/13 08:24:47;;;;;;;6.40;2.53;;;9.10;70.80;;;;;;5030259;28;20144;-74
2023/04/13 08:27:13;;;;;;;8.03;2.67;;;9.00;71.50;;;;;;5023769;28;20143;-74
2023/04/13 08:29:39;;;;;;;5.90;2.40;;;9.00;70.70;;;;;;5020696;28;20049;-74
2023/04/13 08:32:05;;;;;;;7.40;2.27;;;9.00;70.30;;;;;;5038097;28;20470;-74
2023/04/13 08:34:30;;;;;;;6.47;2.40;;;8.90;70.50;;;;;;5023276;28;20881;-75
2023/04/13 08:36:56;;;;;;;8.20;2.67;;;8.70;71.20;;;;;;5023625;28;20135;-75
2023/04/13 08:39:22;;;;;;;5.77;2.20;;;8.60;71.70;;;;;;5034824;28;20643;-74
2023/04/13 08:41:48;;;;;;;7.93;2.30;;;8.50;71.80;;;;;;5039404;28;20057;-74
2023/04/13 08:44:14;;;;;;;6.87;2.37;;;8.30;71.70;;;;;;5038175;28;20539;-74
2023/04/13 08:46:42;;;;;;;9.10;2.33;;;8.20;72.80;;;;;;5025536;28;20573;-74
2023/04/13 08:49:10;;;;;;;5.53;2.60;;;8.20;72.90;;;;;;5038051;28;20645;-75
2023/04/13 08:51:36;;;;;;;6.07;2.20;;;8.20;73.50;;;;;;5004111;28;20063;-74
2023/04/13 08:54:02;;;;;;;7.90;2.30;;;8.20;73.30;;;;;;5019628;28;20334;-74
2023/04/13 08:56:29;;;;;;;4.97;1.83;;;8.10;73.70;;;;;;4991199;28;20056;-74
2023/04/13 08:59:02;;;;;;;2.87;1.70;;;7.80;74.50;;;;;;5035593;28;20054;-74
2023/04/13 09:01:29;;;;;;;4.80;1.50;;;7.80;74.70;;;;;;5021190;28;20044;-74
2023/04/13 09:04:06;;;;;;;2.37;1.00;;;7.70;75.20;;;;;;5037030;28;20056;-74
2023/04/13 09:06:36;;;;;;;6.47;1.27;;;7.70;75.00;;;;;;5023866;28;20045;-74
2023/04/13 09:09:08;;;;;;;7.43;1.47;;;7.80;74.70;;;;;;5036589;28;20048;-74
2023/04/13 09:11:34;;;;;;;4.43;1.20;;;7.80;74.90;;;;;;5040640;28;20079;-74
2023/04/13 09:14:00;;;;;;;4.30;1.73;;;7.80;74.80;;;;;;5041233;28;20053;-74
2023/04/13 09:16:26;;;;;;;3.27;1.17;;;7.80;75.10;;;;;;5030114;28;20278;-74
2023/04/13 09:18:54;;;;;;;5.30;1.70;;;7.80;74.90;;;;;;5040354;28;20051;-74
2023/04/13 09:21:21;;;;;;;4.53;1.73;;;7.80;75.00;;;;;;5042952;28;20045;-75
2023/04/13 09:23:58;;;;;;;6.37;1.30;;;7.80;76.20;;;;;;5046448;28;20440;-74
2023/04/13 09:26:24;;;;;;;5.80;1.10;;;7.80;75.00;;;;;;5037205;28;20448;-74
2023/04/13 09:28:53;;;;;;;5.00;0.83;;;7.70;74.90;;;;;;5037558;28;20053;-74
2023/04/13 09:31:19;;;;;;;7.37;1.17;;;7.50;75.30;;;;;;5024255;28;20077;-74
2023/04/13 09:33:47;;;;;;;4.30;0.97;;;7.20;75.50;;;;;;5042189;28;20045;-74
2023/04/13 09:36:15;;;;;;;3.63;0.87;;;7.10;76.30;;;;;;5033943;28;20076;-74
2023/04/13 09:38:50;;;;;;;3.43;0.83;;;7.00;76.10;;;;;;5037813;28;20451;-74
2023/04/13 09:41:16;;;;;;;3.10;0.93;;;7.00;76.90;;;;;;5042231;28;20048;-74
2023/04/13 09:43:41;;;;;;;5.07;1.10;;;7.10;76.90;;;;;;5034837;28;20053;-75
2023/04/13 09:46:13;;;;;;;4.53;1.20;;;7.20;77.10;;;;;;5022396;28;20080;-74
2023/04/13 09:48:39;;;;;;;5.03;1.20;;;7.30;77.30;;;;;;5018790;28;20077;-74
2023/04/13 09:51:07;;;;;;;5.47;1.10;;;7.40;76.90;;;;;;5011109;28;20056;-74
2023/04/13 09:53:45;;;;;;;5.47;1.10;;;7.40;76.20;;;;;;5025816;28;20060;-74
2023/04/13 09:56:11;;;;;;;2.57;0.70;;;7.40;76.00;;;;;;5001387;28;20801;-74
2023/04/13 09:58:42;;;;;;;2.83;0.50;;;7.50;75.80;;;;;;5032515;28;20403;-74
2023/04/13 10:01:09;;;;;;;0.80;0.17;;;7.60;75.30;;;;;;5026554;28;20045;-74
2023/04/13 10:03:36;;;;;;;1.10;0.10;;;7.70;74.10;;;;;;5030415;28;20503;-74
2023/04/13 10:06:06;;;;;;;2.17;0.30;;;7.60;73.90;;;;;;5030191;28;20045;-75
2023/04/13 10:08:33;;;;;;;1.30;0.20;;;7.50;74.10;;;;;;4993339;28;20045;-74
2023/04/13 10:11:00;;;;;;;1.23;0.10;;;7.40;74.20;;;;;;5028382;28;20354;-75
2023/04/13 10:13:33;;;;;;;1.50;0.17;;;7.40;74.00;;;;;;5005262;28;20049;-74
2023/04/13 10:16:28;;;;;;;1.10;0.20;;;7.40;74.10;;;;;;5030420;28;20041;-74
2023/04/13 10:19:01;;;;;;;1.67;0.30;;;7.40;74.40;;;;;;5022608;28;20041;-74
2023/04/13 10:21:38;;;;;;;4.17;0.40;;;7.60;73.90;;;;;;5015411;28;20498;-74
2023/04/13 10:24:10;;;;;;;1.10;0.30;;;8.00;74.10;;;;;;4996170;28;20045;-74
2023/04/13 10:26:36;;;;;;;1.77;0.20;;;8.40;73.80;;;;;;5002775;28;20045;-74
2023/04/13 10:29:03;;;;;;;1.70;0.20;;;8.60;71.90;;;;;;5019737;28;20467;-74
2023/04/13 10:31:39;;;;;;;1.57;0.30;;;8.90;72.70;;;;;;5029747;28;20505;-74
2023/04/13 10:34:06;;;;;;;0.97;0.40;;;9.40;70.70;;;;;;4987886;28;20160;-74
2023/04/13 10:36:42;;;;;;;4.10;0.90;;;9.60;70.20;;;;;;4995375;28;20404;-74
2023/04/13 10:39:09;;;;;;;3.60;0.60;;;9.50;69.90;;;;;;5024482;28;20133;-74
2023/04/13 10:41:36;;;;;;;3.90;0.70;;;9.40;70.30;;;;;;5031786;28;20054;-74
2023/04/13 10:44:06;;;;;;;3.70;1.03;;;9.20;69.90;;;;;;5037037;28;20045;-74
2023/04/13 10:46:34;;;;;;;8.50;1.33;;;9.20;70.00;;;;;;5028205;28;20376;-74
2023/04/13 10:49:01;;;;;;;6.07;1.20;;;9.00;70.10;;;;;;5019892;28;20041;-75
2023/04/13 10:51:43;;;;;;;5.83;1.20;;;9.00;71.00;;;;;;5040787;28;20079;-75
2023/04/13 10:54:12;;;;;;;6.17;1.60;;;8.80;72.00;;;;;;5022425;28;20045;-74
2023/04/13 10:56:39;;;;;;;4.20;1.10;;;8.70;72.60;;;;;;5015199;28;20056;-74
2023/04/13 10:59:05;;;;;;;4.47;1.33;;;8.40;72.40;;;;;;5034359;28;20888;-74
2023/04/13 11:01:32;;;;;;;8.33;1.40;;;8.20;72.60;;;;;;5023307;28;20154;-75
2023/04/13 11:04:05;;;;;;;7.30;2.00;;;8.00;73.20;;;;;;5040360;28;20422;-74
2023/04/13 11:06:36;;;;;;;4.50;1.40;;;7.90;73.70;;;;;;5006407;28;20079;-74
2023/04/13 11:09:05;;;;;;;4.93;1.20;;;7.90;73.30;;;;;;5002550;28;20126;-75
2023/04/13 11:11:33;;;;;;;2.50;0.67;;;8.00;74.00;;;;;;5040861;28;20526;-75
2023/04/13 11:13:59;;;;;;;2.63;0.50;;;8.00;74.10;;;;;;5005564;28;20095;-75
2023/04/13 11:16:25;;;;;;;2.03;0.50;;;8.10;73.90;;;;;;5028644;28;21240;-75
2023/04/13 11:19:04;;;;;;;4.30;1.30;;;8.10;73.70;;;;;;5021435;28;20052;-74
2023/04/13 11:21:30;;;;;;;8.70;1.73;;;8.40;73.50;;;;;;5022270;28;20044;-75
2023/04/13 11:24:00;;;;;;;14.37;2.90;;;8.80;72.00;;;;;;5040215;28;20048;-74
2023/04/13 11:26:37;;;;;;;12.83;3.07;;;9.10;72.30;;;;;;5028826;28;20044;-74
2023/04/13 11:29:03;;;;;;;15.63;2.87;;;9.20;70.50;;;;;;5030012;28;20506;-73
2023/04/13 11:31:40;;;;;;;14.27;3.20;;;9.20;71.10;;;;;;5039722;28;20509;-74
2023/04/13 11:34:08;;;;;;;15.37;3.53;;;9.10;71.20;;;;;;5021939;28;20064;-74
2023/04/13 11:36:34;;;;;;;16.87;3.37;;;9.20;71.00;;;;;;5008411;28;20892;-74
2023/04/13 11:39:04;;;;;;;17.23;3.50;;;9.30;71.50;;;;;;5038140;28;20461;-74
2023/04/13 11:41:31;;;;;;;13.00;3.07;;;9.40;71.30;;;;;;5040508;28;20044;-74
2023/04/13 11:44:01;;;;;;;16.63;3.33;;;9.40;70.90;;;;;;5021843;28;20107;-74
2023/04/13 11:46:28;;;;;;;11.07;2.93;;;9.30;70.80;;;;;;4989958;28;20104;-74
2023/04/13 11:48:54;;;;;;;9.47;2.37;;;9.20;71.90;;;;;;5001037;28;20479;-74
2023/04/13 11:51:21;;;;;;;7.83;2.20;;;9.00;72.00;;;;;;5002050;28;20079;-74
2023/04/13 11:53:48;;;;;;;13.57;2.07;;;8.80;72.40;;;;;;5019044;28;20487;-74
2023/04/13 11:56:14;;;;;;;8.07;2.27;;;8.60;72.80;;;;;;4991778;28;20378;-74
2023/04/13 11:58:41;;;;;;;14.97;2.30;;;8.40;72.70;;;;;;5014480;28;20037;-74
2023/04/13 12:01:08;;;;;;;12.13;2.63;;;8.40;73.00;;;;;;5000906;28;20541;-74
2023/04/13 12:03:38;;;;;;;14.57;2.80;;;8.40;73.30;;;;;;4984933;28;20050;-74
2023/04/13 12:06:05;;;;;;;15.90;3.30;;;8.50;73.00;;;;;;5017776;28;20057;-73
2023/04/13 12:08:31;;;;;;;13.03;2.83;;;8.60;73.30;;;;;;4988800;28;20376;-74
2023/04/13 12:11:04;;;;;;;12.97;2.83;;;8.60;72.90;;;;;;5019832;28;20321;-75
2023/04/13 12:13:52;;;;;;;12.57;3.20;;;8.70;72.80;;;;;;5003724;28;20049;-74
2023/04/13 12:16:28;;;;;;;14.23;3.47;;;8.80;71.40;;;;;;5009431;28;20057;-74
2023/04/13 12:18:54;;;;;;;18.03;3.40;;;8.90;70.70;;;;;;5019485;28;20071;-74
2023/04/13 12:21:20;;;;;;;19.80;3.53;;;8.90;70.30;;;;;;5021164;28;20423;-74
2023/04/13 12:23:57;;;;;;;12.80;3.47;;;8.90;70.20;;;;;;5015064;28;20050;-74
2023/04/13 12:26:30;;;;;;;17.57;3.47;;;8.90;70.10;;;;;;4981986;28;20084;-75
2023/04/13 12:28:57;;;;;;;17.03;3.60;;;8.90;69.90;;;;;;5017753;28;20110;-74
2023/04/13 12:31:23;;;;;;;13.13;3.37;;;9.00;68.80;;;;;;5002914;28;20507;-74
2023/04/13 12:33:50;;;;;;;14.73;3.43;;;9.00;69.50;;;;;;5020330;28;20051;-75
2023/04/13 12:36:16;;;;;;;13.13;2.90;;;9.20;68.80;;;;;;5009564;28;20052;-74
2023/04/13 12:38:42;;;;;;;13.70;3.17;;;9.20;68.90;;;;;;5015885;28;20053;-75
2023/04/13 12:41:08;;;;;;;15.63;3.47;;;9.30;69.00;;;;;;5020210;28;20404;-75
2023/04/13 12:43:35;;;;;;;14.73;3.33;;;9.20;68.40;;;;;;5032025;28;20457;-74
2023/04/13 12:46:00;;;;;;;10.73;2.87;;;9.00;69.20;;;;;;5021723;28;20817;-74
2023/04/13 12:48:26;;;;;;;17.97;3.47;;;8.90;69.90;;;;;;4996006;28;20053;-75
2023/04/13 12:50:52;;;;;;;14.03;3.50;;;8.80;70.20;;;;;;5040869;28;20257;-74
2023/04/13 12:53:18;;;;;;;17.43;3.93;;;8.60;70.70;;;;;;5021038;28;20071;-74
2023/04/13 12:55:44;;;;;;;17.27;3.37;;;8.60;70.70;;;;;;5039204;28;20550;-74